createdAt,value
2019-03-04T00:01:19.653Z,11.40
2019-03-04T00:03:48.906Z,11.40
2019-03-04T00:06:17.907Z,11.40
2019-03-04T00:08:46.695Z,11.40
2019-03-04T00:11:15.439Z,11.30
2019-03-04T00:13:44.697Z,11.40
2019-03-04T00:16:13.529Z,11.30
2019-03-04T00:18:42.257Z,11.40
2019-03-04T00:21:11.188Z,11.40
2019-03-04T00:23:39.921Z,11.40
2019-03-04T00:26:09.167Z,11.40
2019-03-04T00:28:37.919Z,11.40
2019-03-04T00:31:06.930Z,11.50
2019-03-04T00:33:35.709Z,11.50
2019-03-04T00:36:04.867Z,11.50
2019-03-04T00:38:34.447Z,11.60
2019-03-04T00:41:03.467Z,11.60
2019-03-04T00:43:32.207Z,11.60
2019-03-04T00:46:01.232Z,11.60
2019-03-04T00:48:29.987Z,11.70
2019-03-04T00:50:58.818Z,11.70
2019-03-04T00:53:27.911Z,11.70
2019-03-04T00:55:56.650Z,11.70
2019-03-04T00:58:25.635Z,11.80
2019-03-04T01:00:55.131Z,11.80
2019-03-04T01:03:24.127Z,11.80
2019-03-04T01:05:52.894Z,11.90
2019-03-04T01:08:21.967Z,11.90
2019-03-04T01:10:50.815Z,11.90
2019-03-04T01:13:20.062Z,11.90
2019-03-04T01:15:49.086Z,12.00
2019-03-04T01:18:17.834Z,12.00
2019-03-04T01:20:46.919Z,12.00
2019-03-04T01:23:15.756Z,12.00
2019-03-04T01:25:44.578Z,12.00
2019-03-04T01:28:13.794Z,12.00
2019-03-04T01:30:42.812Z,12.00
2019-03-04T01:33:11.553Z,12.10
2019-03-04T01:35:40.318Z,12.10
2019-03-04T01:38:09.055Z,12.10
2019-03-04T01:40:39.119Z,12.10
2019-03-04T01:43:08.081Z,12.20
2019-03-04T01:45:36.851Z,12.10
2019-03-04T01:48:05.614Z,12.10
2019-03-04T01:50:34.629Z,12.10
2019-03-04T01:53:03.427Z,12.10
2019-03-04T01:55:32.259Z,12.20
2019-03-04T01:58:01.318Z,12.20
2019-03-04T02:00:30.318Z,12.10
2019-03-04T02:02:59.405Z,12.10
2019-03-04T02:05:28.924Z,12.20
2019-03-04T02:07:57.901Z,12.20
2019-03-04T02:10:26.673Z,12.20
2019-03-04T02:12:55.746Z,12.30
2019-03-04T02:15:24.529Z,12.30
2019-03-04T02:17:53.264Z,12.30
2019-03-04T02:20:22.175Z,12.30
2019-03-04T02:22:50.967Z,12.30
2019-03-04T02:25:21.343Z,12.30
2019-03-04T02:28:09.331Z,12.30
2019-03-04T02:30:40.307Z,12.30
2019-03-04T02:33:09.304Z,12.20
2019-03-04T02:35:38.113Z,12.20
2019-03-04T02:38:07.127Z,12.20
2019-03-04T02:40:35.930Z,12.20
2019-03-04T02:43:04.959Z,12.20
2019-03-04T02:45:53.872Z,12.20
2019-03-04T02:48:22.640Z,12.20
2019-03-04T02:50:51.619Z,12.10
2019-03-04T02:53:20.386Z,12.20
2019-03-04T02:55:49.406Z,12.10
2019-03-04T02:58:37.403Z,12.10
2019-03-04T03:01:06.492Z,12.20
2019-03-04T03:03:35.473Z,12.20
2019-03-04T03:06:04.462Z,12.10
2019-03-04T03:08:33.488Z,12.10
2019-03-04T03:11:02.487Z,12.10
2019-03-04T03:13:31.246Z,12.10
2019-03-04T03:15:59.999Z,12.10
2019-03-04T03:18:29.006Z,12.10
2019-03-04T03:20:58.176Z,12.10
2019-03-04T03:23:27.016Z,12.10
2019-03-04T03:25:56.317Z,12.10
2019-03-04T03:28:25.626Z,12.10
2019-03-04T03:30:54.510Z,12.10
2019-03-04T03:33:23.878Z,12.00
2019-03-04T03:35:53.271Z,12.00
2019-03-04T03:38:22.031Z,12.00
2019-03-04T03:40:51.542Z,12.00
2019-03-04T03:43:20.810Z,12.00
2019-03-04T03:45:49.890Z,12.00
2019-03-04T03:48:18.919Z,12.00
2019-03-04T03:50:48.706Z,12.00
2019-03-04T03:53:17.521Z,12.00
2019-03-04T03:55:46.521Z,11.90
2019-03-04T03:58:15.575Z,11.90
2019-03-04T04:00:44.438Z,11.90
2019-03-04T04:03:13.555Z,11.90
2019-03-04T04:05:42.688Z,11.90
2019-03-04T04:08:11.773Z,11.90
2019-03-04T04:10:41.111Z,12.00
2019-03-04T04:13:10.175Z,12.00
2019-03-04T04:15:39.131Z,12.00
2019-03-04T04:18:07.863Z,12.00
2019-03-04T04:20:36.601Z,12.00
2019-03-04T04:23:05.460Z,12.00
2019-03-04T04:25:34.222Z,12.00
2019-03-04T04:28:05.134Z,12.00
2019-03-04T04:30:34.373Z,12.10
2019-03-04T04:33:03.131Z,12.10
2019-03-04T04:35:32.132Z,12.20
2019-03-04T04:38:01.136Z,12.20
2019-03-04T04:40:30.222Z,12.30
2019-03-04T04:42:59.055Z,12.30
2019-03-04T04:45:27.790Z,12.30
2019-03-04T04:47:57.073Z,12.40
2019-03-04T04:50:26.290Z,12.40
2019-03-04T04:52:55.037Z,12.40
2019-03-04T04:55:23.872Z,12.40
2019-03-04T04:57:52.598Z,12.40
2019-03-04T05:00:21.594Z,12.40
2019-03-04T05:02:50.598Z,12.40
2019-03-04T05:05:19.393Z,12.40
2019-03-04T05:07:48.481Z,12.40
2019-03-04T05:10:17.832Z,12.50
2019-03-04T05:12:46.897Z,12.50
2019-03-04T05:15:15.806Z,12.50
2019-03-04T05:17:46.146Z,12.40
2019-03-04T05:20:17.173Z,12.40
2019-03-04T05:22:46.190Z,12.40
2019-03-04T05:25:15.080Z,12.50
2019-03-04T05:27:44.191Z,12.50
2019-03-04T05:30:17.795Z,12.50
2019-03-04T05:32:46.866Z,12.50
2019-03-04T05:35:15.722Z,12.50
2019-03-04T05:37:44.562Z,12.50
2019-03-04T05:40:15.162Z,12.50
2019-03-04T05:42:44.363Z,12.50
2019-03-04T05:45:14.387Z,12.50
2019-03-04T05:47:43.738Z,12.50
2019-03-04T05:50:14.101Z,12.50
2019-03-04T05:52:43.434Z,12.50
2019-03-04T05:55:13.970Z,12.50
2019-03-04T05:57:42.713Z,12.40
2019-03-04T06:00:16.660Z,12.40
2019-03-04T06:02:45.481Z,12.30
2019-03-04T06:05:15.168Z,12.30
2019-03-04T06:07:47.933Z,12.20
2019-03-04T06:10:17.318Z,12.30
2019-03-04T06:12:46.325Z,12.20
2019-03-04T06:15:17.296Z,12.20
2019-03-04T06:17:46.273Z,12.20
2019-03-04T06:20:16.299Z,12.20
2019-03-04T06:22:45.138Z,12.20
2019-03-04T06:25:16.574Z,12.20
2019-03-04T06:27:45.806Z,12.10
2019-03-04T06:30:17.955Z,12.10
2019-03-04T06:32:46.978Z,12.20
2019-03-04T06:35:17.315Z,12.20
2019-03-04T06:37:46.182Z,12.20
2019-03-04T06:40:15.629Z,12.20
2019-03-04T06:42:45.133Z,12.30
2019-03-04T06:45:14.955Z,12.30
2019-03-04T06:47:43.830Z,12.30
2019-03-04T06:50:47.974Z,12.30
2019-03-04T06:54:16.124Z,12.40
2019-03-04T06:56:55.477Z,12.40
2019-03-04T06:59:50.578Z,12.40
2019-03-04T07:02:19.390Z,12.40
2019-03-04T07:05:17.703Z,12.50
2019-03-04T07:08:05.986Z,12.50
2019-03-04T07:10:35.023Z,12.40
2019-03-04T07:13:04.116Z,12.40
2019-03-04T07:15:32.878Z,12.40
2019-03-04T07:18:02.152Z,12.40
2019-03-04T07:20:31.510Z,12.40
2019-03-04T07:23:00.294Z,12.50
2019-03-04T07:25:29.308Z,12.50
2019-03-04T07:27:58.074Z,12.50
2019-03-04T07:30:26.956Z,12.50
2019-03-04T07:32:56.235Z,12.40
2019-03-04T07:35:25.329Z,12.40
2019-03-04T07:38:10.606Z,12.40
2019-03-04T07:40:39.455Z,12.40
2019-03-04T07:43:08.563Z,11.30
2019-03-04T07:45:37.554Z,10.20
2019-03-04T07:48:06.374Z,9.20
2019-03-04T07:50:35.443Z,8.60
2019-03-04T07:53:04.302Z,8.20
2019-03-04T07:55:33.144Z,7.90
2019-03-04T07:58:02.449Z,7.60
2019-03-04T08:00:31.651Z,7.50
2019-03-04T08:03:00.649Z,7.40
2019-03-04T08:05:29.494Z,7.40
2019-03-04T08:07:58.285Z,7.30
2019-03-04T08:11:14.481Z,7.20
2019-03-04T08:13:50.349Z,7.20
2019-03-04T08:16:19.177Z,7.10
2019-03-04T08:18:47.919Z,7.10
2019-03-04T08:21:16.666Z,7.10
2019-03-04T08:23:46.178Z,7.10
2019-03-04T08:26:15.277Z,7.10
2019-03-04T08:28:44.368Z,7.10
2019-03-04T08:31:13.735Z,7.20
2019-03-04T08:33:42.865Z,7.20
2019-03-04T08:36:11.878Z,7.30
2019-03-04T08:38:44.032Z,7.30
2019-03-04T08:41:13.269Z,7.40
2019-03-04T08:43:42.571Z,7.40
2019-03-04T08:46:11.690Z,7.50
2019-03-04T08:48:40.780Z,7.60
2019-03-04T08:51:10.098Z,7.70
2019-03-04T08:53:39.302Z,7.80
2019-03-04T08:56:08.349Z,7.90
2019-03-04T08:58:38.634Z,7.90
2019-03-04T09:01:11.128Z,8.00
2019-03-04T09:03:40.340Z,8.00
2019-03-04T09:06:11.200Z,8.10
2019-03-04T09:08:40.806Z,8.40
2019-03-04T09:11:09.978Z,8.70
2019-03-04T09:13:39.039Z,9.00
2019-03-04T09:16:08.111Z,9.30
2019-03-04T09:18:37.017Z,9.60
2019-03-04T09:21:06.598Z,9.80
2019-03-04T09:23:35.833Z,10.00
2019-03-04T09:26:07.927Z,10.10
2019-03-04T09:28:37.010Z,10.20
2019-03-04T09:31:05.964Z,10.30
2019-03-04T09:33:34.806Z,10.40
2019-03-04T09:36:03.849Z,10.40
2019-03-04T09:38:32.859Z,10.50
2019-03-04T09:41:01.727Z,10.40
2019-03-04T09:43:30.907Z,10.40
2019-03-04T09:45:59.774Z,10.30
2019-03-04T09:48:28.585Z,10.30
2019-03-04T09:50:57.313Z,10.30
2019-03-04T09:53:26.069Z,10.40
2019-03-04T09:55:54.799Z,10.40
2019-03-04T09:58:24.170Z,10.50
2019-03-04T10:01:13.093Z,10.60
2019-03-04T10:04:37.431Z,10.70
2019-03-04T10:07:38.386Z,10.70
2019-03-04T10:10:48.328Z,10.70
2019-03-04T10:13:55.127Z,10.80
2019-03-04T10:16:53.449Z,10.90
2019-03-04T10:20:28.219Z,10.80
2019-03-04T10:23:50.743Z,10.60
2019-03-04T10:26:49.507Z,10.70
2019-03-04T10:29:40.691Z,10.80
2019-03-04T10:32:39.966Z,10.90
2019-03-04T10:35:31.352Z,11.10
2019-03-04T10:38:22.328Z,11.30
2019-03-04T10:41:03.687Z,11.30
2019-03-04T10:44:06.173Z,11.30
2019-03-04T10:46:51.374Z,11.30
2019-03-04T10:49:20.494Z,11.20
2019-03-04T10:51:52.398Z,11.10
2019-03-04T10:54:21.146Z,11.00
2019-03-04T10:56:50.130Z,10.90
2019-03-04T10:59:19.414Z,10.90
2019-03-04T11:01:50.077Z,11.00
2019-03-04T11:04:19.061Z,11.00
2019-03-04T11:06:48.351Z,11.00
2019-03-04T11:09:19.490Z,10.90
2019-03-04T11:11:48.526Z,10.80
2019-03-04T11:14:17.712Z,10.70
2019-03-04T11:16:46.707Z,10.60
2019-03-04T11:19:15.663Z,10.60
2019-03-04T11:21:44.549Z,10.50
2019-03-04T11:24:13.747Z,10.60
2019-03-04T11:26:42.773Z,10.40
2019-03-04T11:29:13.372Z,10.40
2019-03-04T11:31:42.524Z,10.30
2019-03-04T11:34:11.259Z,10.30
2019-03-04T11:36:40.002Z,10.20
2019-03-04T11:39:44.053Z,10.20
2019-03-04T11:42:13.249Z,10.20
2019-03-04T11:44:42.350Z,10.10
2019-03-04T11:47:11.225Z,10.10
2019-03-04T11:49:40.214Z,10.10
2019-03-04T11:52:09.430Z,10.20
2019-03-04T11:54:38.486Z,10.30
2019-03-04T11:57:07.575Z,10.40
2019-03-04T11:59:36.578Z,10.40
2019-03-04T12:02:07.348Z,10.40
2019-03-04T12:04:36.325Z,10.20
2019-03-04T12:07:05.278Z,10.20
2019-03-04T12:09:34.015Z,10.20
2019-03-04T12:12:02.835Z,10.10
2019-03-04T12:14:31.837Z,10.10
2019-03-04T12:17:00.690Z,10.00
2019-03-04T12:19:29.430Z,10.00
2019-03-04T12:21:59.481Z,10.00
2019-03-04T12:24:28.217Z,10.00
2019-03-04T12:26:56.949Z,9.90
2019-03-04T12:29:26.227Z,9.90
2019-03-04T12:32:14.316Z,9.80
2019-03-04T12:34:43.559Z,9.80
2019-03-04T12:37:12.821Z,9.70
2019-03-04T12:39:41.546Z,9.60
2019-03-04T12:42:10.308Z,9.50
2019-03-04T12:44:39.081Z,9.40
2019-03-04T12:47:08.071Z,9.30
2019-03-04T12:49:36.786Z,9.20
2019-03-04T12:52:05.711Z,8.80
2019-03-04T12:54:34.757Z,8.50
2019-03-04T12:57:03.870Z,8.20
2019-03-04T12:59:33.006Z,7.80
2019-03-04T13:02:02.329Z,7.60
2019-03-04T13:04:31.453Z,7.50
2019-03-04T13:07:00.253Z,7.40
2019-03-04T13:09:29.245Z,7.20
2019-03-04T13:11:58.246Z,7.20
2019-03-04T13:14:27.106Z,7.10
2019-03-04T13:16:56.354Z,7.00
2019-03-04T13:19:34.305Z,7.00
2019-03-04T13:22:08.545Z,6.90
2019-03-04T13:24:34.729Z,6.80
2019-03-04T13:27:03.788Z,6.90
2019-03-04T13:29:33.835Z,7.00
2019-03-04T13:32:02.994Z,7.40
2019-03-04T13:34:32.090Z,7.80
2019-03-04T13:37:00.981Z,7.90
2019-03-04T13:39:29.877Z,7.90
2019-03-04T13:41:58.919Z,7.80
2019-03-04T13:44:27.906Z,7.70
2019-03-04T13:46:56.903Z,7.60
2019-03-04T13:49:25.994Z,7.40
2019-03-04T13:51:55.049Z,7.30
2019-03-04T13:54:24.029Z,7.10
2019-03-04T13:56:52.832Z,7.00
2019-03-04T13:59:21.822Z,7.00
2019-03-04T14:01:50.634Z,7.00
2019-03-04T14:04:19.650Z,7.00
2019-03-04T14:06:48.459Z,7.00
2019-03-04T14:09:20.369Z,7.10
2019-03-04T14:11:49.440Z,7.20
2019-03-04T14:14:18.238Z,7.30
2019-03-04T14:16:47.085Z,7.50
2019-03-04T14:19:16.093Z,7.70
2019-03-04T14:21:44.842Z,7.60
2019-03-04T14:24:14.019Z,7.60
2019-03-04T14:26:42.987Z,7.60
2019-03-04T14:29:11.716Z,7.80
2019-03-04T14:31:40.467Z,8.00
2019-03-04T14:34:09.714Z,8.10
2019-03-04T14:36:38.706Z,8.10
2019-03-04T14:39:12.825Z,8.00
2019-03-04T14:41:41.831Z,8.00
2019-03-04T14:44:10.553Z,7.90
2019-03-04T14:46:39.281Z,7.70
2019-03-04T14:49:08.326Z,7.70
2019-03-04T14:51:37.099Z,7.60
2019-03-04T14:54:08.516Z,7.60
2019-03-04T14:56:37.562Z,7.50
2019-03-04T14:59:10.831Z,7.50
2019-03-04T15:01:37.499Z,7.50
2019-03-04T15:04:06.489Z,7.40
2019-03-04T15:06:35.462Z,7.40
2019-03-04T15:09:07.880Z,7.60
2019-03-04T15:11:36.928Z,7.70
2019-03-04T15:14:05.798Z,7.80
2019-03-04T15:16:34.576Z,7.70
2019-03-04T15:19:03.794Z,7.70
2019-03-04T15:21:33.210Z,7.60
2019-03-04T15:24:02.194Z,7.50
2019-03-04T15:26:41.691Z,7.50
2019-03-04T15:29:02.777Z,7.40
2019-03-04T15:31:31.580Z,7.50
2019-03-04T15:34:00.441Z,7.80
2019-03-04T15:36:30.746Z,8.30
2019-03-04T15:38:59.734Z,8.60
2019-03-04T15:41:28.516Z,9.10
2019-03-04T15:43:57.318Z,9.40
2019-03-04T15:46:26.190Z,9.60
2019-03-04T15:48:55.468Z,9.70
2019-03-04T15:51:24.485Z,9.30
2019-03-04T15:53:53.530Z,8.90
2019-03-04T15:56:25.892Z,8.50
2019-03-04T15:58:55.006Z,8.40
2019-03-04T16:01:25.239Z,8.40
2019-03-04T16:03:54.178Z,8.20
2019-03-04T16:06:22.994Z,8.00
2019-03-04T16:08:52.297Z,7.90
2019-03-04T16:11:22.098Z,7.80
2019-03-04T16:13:55.165Z,7.70
2019-03-04T16:16:21.598Z,7.70
2019-03-04T16:18:50.764Z,7.60
2019-03-04T16:21:22.404Z,7.50
2019-03-04T16:23:52.965Z,7.50
2019-03-04T16:26:22.100Z,7.40
2019-03-04T16:28:51.474Z,7.40
2019-03-04T16:31:20.570Z,7.30
2019-03-04T16:33:50.413Z,7.30
2019-03-04T16:36:19.858Z,7.30
2019-03-04T16:38:49.134Z,7.30
2019-03-04T16:41:18.194Z,7.30
2019-03-04T16:43:48.273Z,7.30
2019-03-04T16:46:17.294Z,7.30
2019-03-04T16:48:46.581Z,7.30
2019-03-04T16:51:16.564Z,7.30
2019-03-04T16:54:05.017Z,7.30
2019-03-04T16:56:34.177Z,7.30
2019-03-04T16:59:06.365Z,7.30
2019-03-04T17:01:35.560Z,7.30
2019-03-04T17:04:04.353Z,7.20
2019-03-04T17:06:33.494Z,7.20
2019-03-04T17:09:03.595Z,7.20
2019-03-04T17:11:32.653Z,7.20
2019-03-04T17:14:01.975Z,7.20
2019-03-04T17:16:32.107Z,7.10
2019-03-04T17:19:01.525Z,7.10
2019-03-04T17:21:30.901Z,7.00
2019-03-04T17:24:01.259Z,7.00
2019-03-04T17:26:30.330Z,7.00
2019-03-04T17:28:59.788Z,6.90
2019-03-04T17:31:28.939Z,6.90
2019-03-04T17:33:57.706Z,6.90
2019-03-04T17:36:26.798Z,6.90
2019-03-04T17:38:55.960Z,6.90
2019-03-04T17:41:25.593Z,6.80
2019-03-04T17:43:55.433Z,6.80
2019-03-04T17:46:24.302Z,6.80
2019-03-04T17:48:53.641Z,6.70
2019-03-04T17:51:23.444Z,6.70
2019-03-04T17:53:53.598Z,6.70
2019-03-04T17:56:22.881Z,6.70
2019-03-04T17:58:51.765Z,6.70
2019-03-04T18:01:20.918Z,6.60
2019-03-04T18:03:50.237Z,6.60
2019-03-04T18:06:19.433Z,6.60
2019-03-04T18:08:48.601Z,6.60
2019-03-04T18:11:17.434Z,6.60
2019-03-04T18:13:46.442Z,6.60
2019-03-04T18:16:15.990Z,6.60
2019-03-04T18:18:45.077Z,6.60
2019-03-04T18:21:14.343Z,6.60
2019-03-04T18:23:43.405Z,6.50
2019-03-04T18:26:43.022Z,6.50
2019-03-04T18:29:20.862Z,6.60
2019-03-04T18:32:12.473Z,6.50
2019-03-04T18:35:18.575Z,6.50
2019-03-04T18:38:01.146Z,6.50
2019-03-04T18:40:48.637Z,6.40
2019-03-04T18:43:39.794Z,6.40
2019-03-04T18:46:55.723Z,6.50
2019-03-04T18:49:24.958Z,6.40
2019-03-04T18:51:54.732Z,6.40
2019-03-04T18:54:23.729Z,6.40
2019-03-04T18:56:52.850Z,6.40
2019-03-04T18:59:22.259Z,6.30
2019-03-04T19:01:51.319Z,6.30
2019-03-04T19:04:21.317Z,6.30
2019-03-04T19:06:50.133Z,6.30
2019-03-04T19:09:19.296Z,6.30
2019-03-04T19:11:48.181Z,6.30
2019-03-04T19:14:17.514Z,6.30
2019-03-04T19:16:48.153Z,6.30
2019-03-04T19:19:17.195Z,6.20
2019-03-04T19:21:46.227Z,6.20
2019-03-04T19:24:14.960Z,6.20
2019-03-04T19:26:43.978Z,6.20
2019-03-04T19:29:12.888Z,6.20
2019-03-04T19:31:41.775Z,6.20
2019-03-04T19:34:10.897Z,6.20
2019-03-04T19:36:39.653Z,6.20
2019-03-04T19:39:11.106Z,6.20
2019-03-04T19:41:40.440Z,6.20
2019-03-04T19:44:09.216Z,6.20
2019-03-04T19:46:38.514Z,6.20
2019-03-04T19:49:07.474Z,6.20
2019-03-04T19:51:36.875Z,6.20
2019-03-04T19:54:05.994Z,6.20
2019-03-04T19:56:39.564Z,6.20
2019-03-04T19:59:08.398Z,6.20
2019-03-04T20:01:37.802Z,6.10
2019-03-04T20:04:06.686Z,6.10
2019-03-04T20:06:36.681Z,6.10
2019-03-04T20:09:06.761Z,6.00
2019-03-04T20:11:36.472Z,6.00
2019-03-04T20:14:05.349Z,5.90
2019-03-04T20:16:34.511Z,5.90
2019-03-04T20:19:03.394Z,5.90
2019-03-04T20:21:33.069Z,5.90
2019-03-04T20:24:01.951Z,5.80
2019-03-04T20:26:30.706Z,5.80
2019-03-04T20:28:59.516Z,5.80
2019-03-04T20:31:28.291Z,5.80
2019-03-04T20:33:57.292Z,5.90
2019-03-04T20:36:26.357Z,5.90
2019-03-04T20:38:55.488Z,5.90
2019-03-04T20:41:24.904Z,5.90
2019-03-04T20:43:53.899Z,5.90
2019-03-04T20:46:22.765Z,5.90
2019-03-04T20:48:51.541Z,5.90
2019-03-04T20:51:20.358Z,5.90
2019-03-04T20:53:50.942Z,5.90
2019-03-04T20:56:20.672Z,5.90
2019-03-04T20:58:49.413Z,5.90
2019-03-04T21:01:18.777Z,5.80
2019-03-04T21:03:51.478Z,5.80
2019-03-04T21:06:21.336Z,5.80
2019-03-04T21:08:50.854Z,5.90
2019-03-04T21:11:20.108Z,5.90
2019-03-04T21:13:49.117Z,5.90
2019-03-04T21:16:18.146Z,6.00
2019-03-04T21:18:47.621Z,6.00
2019-03-04T21:21:17.023Z,6.00
2019-03-04T21:23:48.410Z,6.10
2019-03-04T21:26:23.042Z,6.10
2019-03-04T21:29:33.257Z,6.10
2019-03-04T21:32:11.449Z,6.00
2019-03-04T21:35:48.818Z,6.00
2019-03-04T21:38:17.977Z,5.90
2019-03-04T21:41:11.116Z,5.90
2019-03-04T21:43:45.182Z,5.90
2019-03-04T21:46:39.670Z,5.90
2019-03-04T21:49:11.217Z,5.80
2019-03-04T21:51:45.532Z,5.80
2019-03-04T21:54:14.930Z,5.90
2019-03-04T21:57:00.879Z,5.80
2019-03-04T21:59:30.848Z,5.90
2019-03-04T22:02:15.588Z,5.90
2019-03-04T22:04:44.855Z,6.00
2019-03-04T22:07:15.355Z,6.00
2019-03-04T22:09:44.586Z,6.10
2019-03-04T22:12:16.256Z,6.10
2019-03-04T22:14:45.668Z,6.20
2019-03-04T22:17:14.516Z,6.30
2019-03-04T22:19:44.046Z,6.30
2019-03-04T22:22:14.135Z,6.30
2019-03-04T22:24:43.130Z,6.30
2019-03-04T22:27:11.962Z,6.40
2019-03-04T22:29:41.883Z,6.40
2019-03-04T22:32:10.844Z,6.40
2019-03-04T22:34:39.829Z,6.40
2019-03-04T22:37:08.645Z,6.30
2019-03-04T22:39:37.646Z,6.10
2019-03-04T22:42:06.446Z,6.10
2019-03-04T22:44:35.249Z,6.00
2019-03-04T22:47:04.145Z,6.00
2019-03-04T22:49:35.274Z,6.00
2019-03-04T22:52:04.148Z,6.00
2019-03-04T22:54:34.034Z,6.00
2019-03-04T22:57:02.869Z,6.00
2019-03-04T22:59:31.615Z,6.00
2019-03-04T23:02:02.344Z,6.10
2019-03-04T23:04:55.941Z,6.10
2019-03-04T23:07:36.550Z,6.20
2019-03-04T23:10:29.897Z,6.20
2019-03-04T23:13:12.086Z,6.20
2019-03-04T23:15:41.497Z,6.10
2019-03-04T23:18:10.470Z,6.10
2019-03-04T23:20:39.481Z,6.00
2019-03-04T23:23:08.731Z,6.00
2019-03-04T23:25:37.488Z,5.90
2019-03-04T23:28:06.240Z,5.80
2019-03-04T23:30:35.221Z,5.70
2019-03-04T23:33:05.041Z,5.60
2019-03-04T23:35:33.930Z,5.50
2019-03-04T23:38:02.918Z,5.50
2019-03-04T23:40:31.662Z,5.40
2019-03-04T23:43:00.941Z,5.40
2019-03-04T23:45:29.951Z,5.40
2019-03-04T23:47:59.182Z,5.40
2019-03-04T23:50:28.431Z,5.40
2019-03-04T23:52:57.658Z,5.40
2019-03-04T23:55:26.391Z,5.40
2019-03-04T23:57:55.478Z,5.40
